sensor_id;sensor_type;location;lat;lon;timestamp;pressure;altitude;pressure_sealevel;temperature;humidity
49122;BME280;35529;44.342;25.944;2022-10-18T00:02:22;102430.34;;;6.14;100.00
49122;BME280;35529;44.342;25.944;2022-10-18T00:04:48;102436.34;;;6.16;100.00
49122;BME280;35529;44.342;25.944;2022-10-18T00:07:14;102425.78;;;6.16;100.00
49122;BME280;35529;44.342;25.944;2022-10-18T00:12:09;102430.94;;;6.18;100.00
49122;BME280;35529;44.342;25.944;2022-10-18T00:14:37;102434.66;;;6.15;100.00
49122;BME280;35529;44.342;25.944;2022-10-18T00:17:03;102422.53;;;6.13;100.00
49122;BME280;35529;44.342;25.944;2022-10-18T00:19:29;102428.06;;;6.10;100.00
49122;BME280;35529;44.342;25.944;2022-10-18T00:21:55;102423.25;;;6.03;100.00
49122;BME280;35529;44.342;25.944;2022-10-18T00:24:21;102420.81;;;5.89;100.00
49122;BME280;35529;44.342;25.944;2022-10-18T00:26:47;102415.53;;;5.78;100.00
49122;BME280;35529;44.342;25.944;2022-10-18T00:29:15;102416.72;;;5.74;100.00
49122;BME280;35529;44.342;25.944;2022-10-18T00:31:41;102417.16;;;5.67;100.00
49122;BME280;35529;44.342;25.944;2022-10-18T00:34:12;102411.44;;;5.74;100.00
49122;BME280;35529;44.342;25.944;2022-10-18T00:36:39;102408.56;;;5.77;100.00
49122;BME280;35529;44.342;25.944;2022-10-18T00:39:06;102413.72;;;5.78;100.00
49122;BME280;35529;44.342;25.944;2022-10-18T00:41:33;102403.16;;;5.78;100.00
49122;BME280;35529;44.342;25.944;2022-10-18T00:46:36;102400.41;;;5.80;100.00
49122;BME280;35529;44.342;25.944;2022-10-18T00:51:45;102412.03;;;5.77;100.00
49122;BME280;35529;44.342;25.944;2022-10-18T00:54:16;102406.38;;;5.70;100.00
49122;BME280;35529;44.342;25.944;2022-10-18T00:56:57;102403.84;;;5.58;100.00
49122;BME280;35529;44.342;25.944;2022-10-18T00:59:23;102390.75;;;5.45;100.00
49122;BME280;35529;44.342;25.944;2022-10-18T01:01:50;102403.66;;;5.36;100.00
49122;BME280;35529;44.342;25.944;2022-10-18T01:04:16;102411.06;;;5.31;100.00
49122;BME280;35529;44.342;25.944;2022-10-18T01:07:09;102399.59;;;5.32;100.00
49122;BME280;35529;44.342;25.944;2022-10-18T01:12:02;102404.63;;;5.35;100.00
49122;BME280;35529;44.342;25.944;2022-10-18T01:14:46;102404.41;;;5.39;100.00
49122;BME280;35529;44.342;25.944;2022-10-18T01:17:18;102405.59;;;5.34;100.00
49122;BME280;35529;44.342;25.944;2022-10-18T01:32:51;102388.59;;;5.14;100.00
49122;BME280;35529;44.342;25.944;2022-10-18T01:35:28;102380.81;;;5.13;100.00
49122;BME280;35529;44.342;25.944;2022-10-18T01:37:57;102386.22;;;5.11;100.00
49122;BME280;35529;44.342;25.944;2022-10-18T01:40:31;102379.25;;;5.10;100.00
49122;BME280;35529;44.342;25.944;2022-10-18T01:42:58;102378.31;;;5.11;100.00
49122;BME280;35529;44.342;25.944;2022-10-18T01:45:25;102365.16;;;5.11;100.00
49122;BME280;35529;44.342;25.944;2022-10-18T01:47:52;102374.72;;;5.12;100.00
49122;BME280;35529;44.342;25.944;2022-10-18T01:50:33;102370.53;;;5.10;100.00
49122;BME280;35529;44.342;25.944;2022-10-18T01:53:02;102374.09;;;5.09;100.00
49122;BME280;35529;44.342;25.944;2022-10-18T01:55:36;102377.69;;;5.08;100.00
49122;BME280;35529;44.342;25.944;2022-10-18T02:00:42;102377.09;;;5.04;100.00
49122;BME280;35529;44.342;25.944;2022-10-18T02:03:23;102370.97;;;5.03;100.00
49122;BME280;35529;44.342;25.944;2022-10-18T02:06:16;102378.88;;;5.03;100.00
49122;BME280;35529;44.342;25.944;2022-10-18T02:08:37;102372.78;;;5.03;100.00
49122;BME280;35529;44.342;25.944;2022-10-18T02:11:06;102377.22;;;5.02;100.00
49122;BME280;35529;44.342;25.944;2022-10-18T02:13:35;102376.22;;;5.03;100.00
49122;BME280;35529;44.342;25.944;2022-10-18T02:16:04;102374.56;;;5.02;100.00
49122;BME280;35529;44.342;25.944;2022-10-18T02:18:36;102370.50;;;4.98;100.00
49122;BME280;35529;44.342;25.944;2022-10-18T02:21:04;102378.38;;;4.98;100.00
49122;BME280;35529;44.342;25.944;2022-10-18T02:23:32;102378.38;;;4.98;100.00
49122;BME280;35529;44.342;25.944;2022-10-18T02:26:01;102372.28;;;4.98;100.00
49122;BME280;35529;44.342;25.944;2022-10-18T02:28:27;102373.34;;;4.95;100.00
49122;BME280;35529;44.342;25.944;2022-10-18T02:31:04;102369.97;;;4.93;100.00
49122;BME280;35529;44.342;25.944;2022-10-18T02:36:25;102369.38;;;4.90;100.00
49122;BME280;35529;44.342;25.944;2022-10-18T02:38:54;102359.91;;;4.87;100.00
49122;BME280;35529;44.342;25.944;2022-10-18T02:41:25;102359.63;;;4.79;100.00
49122;BME280;35529;44.342;25.944;2022-10-18T02:43:51;102364.38;;;4.74;100.00
49122;BME280;35529;44.342;25.944;2022-10-18T02:46:18;102370.56;;;4.73;100.00
49122;BME280;35529;44.342;25.944;2022-10-18T02:48:44;102369.00;;;4.70;100.00
49122;BME280;35529;44.342;25.944;2022-10-18T02:51:10;102367.94;;;4.73;100.00
49122;BME280;35529;44.342;25.944;2022-10-18T02:53:36;102371.56;;;4.72;100.00
49122;BME280;35529;44.342;25.944;2022-10-18T02:56:10;102373.22;;;4.73;100.00
49122;BME280;35529;44.342;25.944;2022-10-18T02:58:36;102366.59;;;4.67;100.00
49122;BME280;35529;44.342;25.944;2022-10-18T03:01:03;102362.53;;;4.63;100.00
49122;BME280;35529;44.342;25.944;2022-10-18T03:03:29;102359.16;;;4.61;100.00
49122;BME280;35529;44.342;25.944;2022-10-18T03:05:56;102362.94;;;4.57;100.00
49122;BME280;35529;44.342;25.944;2022-10-18T03:08:28;102364.00;;;4.54;100.00
49122;BME280;35529;44.342;25.944;2022-10-18T03:10:54;102372.88;;;4.53;100.00
49122;BME280;35529;44.342;25.944;2022-10-18T03:13:22;102364.34;;;4.49;100.00
49122;BME280;35529;44.342;25.944;2022-10-18T03:15:48;102366.25;;;4.47;100.00
49122;BME280;35529;44.342;25.944;2022-10-18T03:18:14;102369.97;;;4.45;100.00
49122;BME280;35529;44.342;25.944;2022-10-18T03:20:54;102363.91;;;4.18;100.00
49122;BME280;35529;44.342;25.944;2022-10-18T03:23:20;102366.13;;;3.99;100.00
49122;BME280;35529;44.342;25.944;2022-10-18T03:25:46;102369.81;;;3.83;100.00
49122;BME280;35529;44.342;25.944;2022-10-18T03:28:12;102373.38;;;3.57;100.00
49122;BME280;35529;44.342;25.944;2022-10-18T03:30:38;102367.28;;;3.43;100.00
49122;BME280;35529;44.342;25.944;2022-10-18T03:33:05;102357.81;;;3.41;100.00
49122;BME280;35529;44.342;25.944;2022-10-18T03:35:39;102368.59;;;3.36;100.00
49122;BME280;35529;44.342;25.944;2022-10-18T03:38:05;102369.34;;;3.38;100.00
49122;BME280;35529;44.342;25.944;2022-10-18T03:40:31;102368.31;;;3.41;100.00
49122;BME280;35529;44.342;25.944;2022-10-18T03:42:59;102356.13;;;3.40;100.00
49122;BME280;35529;44.342;25.944;2022-10-18T03:45:26;102363.16;;;3.39;100.00
49122;BME280;35529;44.342;25.944;2022-10-18T03:47:52;102367.22;;;3.30;100.00
49122;BME280;35529;44.342;25.944;2022-10-18T03:52:49;102359.91;;;3.35;100.00
49122;BME280;35529;44.342;25.944;2022-10-18T03:55:16;102366.84;;;3.37;100.00
49122;BME280;35529;44.342;25.944;2022-10-18T03:57:42;102374.81;;;3.35;100.00
49122;BME280;35529;44.342;25.944;2022-10-18T04:00:08;102359.97;;;3.21;100.00
49122;BME280;35529;44.342;25.944;2022-10-18T04:02:35;102372.06;;;3.24;100.00
49122;BME280;35529;44.342;25.944;2022-10-18T04:05:01;102360.84;;;3.34;100.00
49122;BME280;35529;44.342;25.944;2022-10-18T04:07:27;102359.28;;;3.45;100.00
49122;BME280;35529;44.342;25.944;2022-10-18T04:09:53;102354.47;;;3.51;100.00
49122;BME280;35529;44.342;25.944;2022-10-18T04:12:19;102369.69;;;3.46;100.00
49122;BME280;35529;44.342;25.944;2022-10-18T04:14:45;102355.91;;;3.43;100.00
49122;BME280;35529;44.342;25.944;2022-10-18T04:17:15;102361.16;;;3.43;100.00
49122;BME280;35529;44.342;25.944;2022-10-18T04:19:41;102356.75;;;3.43;100.00
49122;BME280;35529;44.342;25.944;2022-10-18T04:22:07;102357.59;;;3.44;100.00
49122;BME280;35529;44.342;25.944;2022-10-18T04:24:36;102356.66;;;3.45;100.00
49122;BME280;35529;44.342;25.944;2022-10-18T04:27:06;102352.34;;;3.31;100.00
49122;BME280;35529;44.342;25.944;2022-10-18T04:29:32;102353.66;;;3.11;100.00
49122;BME280;35529;44.342;25.944;2022-10-18T04:31:58;102348.69;;;3.06;100.00
49122;BME280;35529;44.342;25.944;2022-10-18T04:34:25;102350.88;;;2.99;100.00
49122;BME280;35529;44.342;25.944;2022-10-18T04:36:51;102354.53;;;2.97;100.00
49122;BME280;35529;44.342;25.944;2022-10-18T04:39:17;102359.91;;;2.95;100.00
49122;BME280;35529;44.342;25.944;2022-10-18T04:41:45;102358.31;;;2.93;100.00
49122;BME280;35529;44.342;25.944;2022-10-18T04:44:11;102360.94;;;2.93;100.00
49122;BME280;35529;44.342;25.944;2022-10-18T04:46:37;102353.91;;;2.93;100.00
49122;BME280;35529;44.342;25.944;2022-10-18T04:49:04;102355.19;;;3.00;100.00
49122;BME280;35529;44.342;25.944;2022-10-18T04:54:16;102363.00;;;3.15;100.00
49122;BME280;35529;44.342;25.944;2022-10-18T04:56:42;102353.56;;;3.12;100.00
49122;BME280;35529;44.342;25.944;2022-10-18T04:59:10;102348.41;;;3.11;100.00
49122;BME280;35529;44.342;25.944;2022-10-18T05:01:36;102359.41;;;3.16;100.00
49122;BME280;35529;44.342;25.944;2022-10-18T05:04:02;102358.38;;;3.18;100.00
49122;BME280;35529;44.342;25.944;2022-10-18T05:06:28;102359.97;;;3.21;100.00
49122;BME280;35529;44.342;25.944;2022-10-18T05:08:54;102367.66;;;3.24;100.00
49122;BME280;35529;44.342;25.944;2022-10-18T05:11:21;102365.75;;;3.26;100.00
49122;BME280;35529;44.342;25.944;2022-10-18T05:13:47;102364.06;;;3.25;100.00
49122;BME280;35529;44.342;25.944;2022-10-18T05:16:15;102355.28;;;3.39;100.00
49122;BME280;35529;44.342;25.944;2022-10-18T05:18:41;102354.06;;;3.58;100.00
49122;BME280;35529;44.342;25.944;2022-10-18T05:21:08;102361.63;;;3.75;100.00
49122;BME280;35529;44.342;25.944;2022-10-18T05:23:34;102358.44;;;3.83;100.00
49122;BME280;35529;44.342;25.944;2022-10-18T05:26:01;102364.56;;;3.83;100.00
49122;BME280;35529;44.342;25.944;2022-10-18T05:28:29;102367.50;;;3.92;100.00
49122;BME280;35529;44.342;25.944;2022-10-18T05:30:57;102365.06;;;4.01;100.00
49122;BME280;35529;44.342;25.944;2022-10-18T05:33:24;102356.31;;;4.14;100.00
49122;BME280;35529;44.342;25.944;2022-10-18T05:35:50;102364.53;;;4.22;100.00
49122;BME280;35529;44.342;25.944;2022-10-18T05:38:17;102364.81;;;4.30;100.00
49122;BME280;35529;44.342;25.944;2022-10-18T05:40:43;102376.28;;;4.42;100.00
49122;BME280;35529;44.342;25.944;2022-10-18T05:43:09;102376.03;;;4.58;100.00
49122;BME280;35529;44.342;25.944;2022-10-18T05:45:37;102374.66;;;4.77;100.00
49122;BME280;35529;44.342;25.944;2022-10-18T05:48:03;102378.72;;;4.94;100.00
49122;BME280;35529;44.342;25.944;2022-10-18T05:50:30;102374.72;;;5.12;100.00
49122;BME280;35529;44.342;25.944;2022-10-18T05:52:56;102368.94;;;5.31;100.00
49122;BME280;35529;44.342;25.944;2022-10-18T05:55:22;102375.69;;;5.47;100.00
49122;BME280;35529;44.342;25.944;2022-10-18T05:57:54;102374.63;;;5.61;100.00
49122;BME280;35529;44.342;25.944;2022-10-18T06:00:20;102383.66;;;5.81;100.00
49122;BME280;35529;44.342;25.944;2022-10-18T06:02:46;102383.06;;;5.88;100.00
49122;BME280;35529;44.342;25.944;2022-10-18T06:05:12;102385.72;;;6.00;100.00
49122;BME280;35529;44.342;25.944;2022-10-18T06:07:39;102388.13;;;6.14;100.00
49122;BME280;35529;44.342;25.944;2022-10-18T06:10:05;102384.44;;;6.28;100.00
49122;BME280;35529;44.342;25.944;2022-10-18T06:12:31;102399.03;;;6.44;100.00
49122;BME280;35529;44.342;25.944;2022-10-18T06:14:57;102388.47;;;6.55;100.00
49122;BME280;35529;44.342;25.944;2022-10-18T06:17:23;102397.09;;;6.68;100.00
49122;BME280;35529;44.342;25.944;2022-10-18T06:19:49;102393.19;;;6.84;100.00
49122;BME280;35529;44.342;25.944;2022-10-18T06:22:15;102393.53;;;7.02;100.00
49122;BME280;35529;44.342;25.944;2022-10-18T06:24:41;102395.03;;;7.16;100.00
49122;BME280;35529;44.342;25.944;2022-10-18T06:27:07;102390.13;;;7.32;100.00
49122;BME280;35529;44.342;25.944;2022-10-18T06:29:34;102394.16;;;7.48;100.00
49122;BME280;35529;44.342;25.944;2022-10-18T06:32:00;102404.13;;;7.65;100.00
49122;BME280;35529;44.342;25.944;2022-10-18T06:34:26;102398.25;;;7.83;100.00
49122;BME280;35529;44.342;25.944;2022-10-18T06:36:52;102390.69;;;7.99;100.00
49122;BME280;35529;44.342;25.944;2022-10-18T06:39:20;102395.63;;;8.14;100.00
49122;BME280;35529;44.342;25.944;2022-10-18T06:41:46;102395.00;;;8.31;100.00
49122;BME280;35529;44.342;25.944;2022-10-18T06:44:13;102394.38;;;8.49;100.00
49122;BME280;35529;44.342;25.944;2022-10-18T06:46:39;102389.41;;;8.65;100.00
49122;BME280;35529;44.342;25.944;2022-10-18T06:49:06;102391.50;;;8.81;100.00
49122;BME280;35529;44.342;25.944;2022-10-18T06:51:39;102382.34;;;8.95;100.00
49122;BME280;35529;44.342;25.944;2022-10-18T06:54:05;102374.94;;;9.09;100.00
49122;BME280;35529;44.342;25.944;2022-10-18T06:56:38;102373.97;;;9.19;100.00
49122;BME280;35529;44.342;25.944;2022-10-18T06:59:04;102370.03;;;9.33;100.00
49122;BME280;35529;44.342;25.944;2022-10-18T07:01:30;102366.94;;;9.48;100.00
49122;BME280;35529;44.342;25.944;2022-10-18T07:03:56;102377.13;;;9.62;100.00
49122;BME280;35529;44.342;25.944;2022-10-18T07:06:23;102370.66;;;9.75;100.00
49122;BME280;35529;44.342;25.944;2022-10-18T07:08:50;102365.56;;;9.91;100.00
49122;BME280;35529;44.342;25.944;2022-10-18T07:11:20;102368.72;;;10.04;100.00
49122;BME280;35529;44.342;25.944;2022-10-18T07:13:48;102372.59;;;10.20;100.00
49122;BME280;35529;44.342;25.944;2022-10-18T07:16:16;102367.50;;;10.36;100.00
49122;BME280;35529;44.342;25.944;2022-10-18T07:18:49;102369.50;;;10.52;100.00
49122;BME280;35529;44.342;25.944;2022-10-18T07:21:23;102375.13;;;10.67;100.00
49122;BME280;35529;44.342;25.944;2022-10-18T07:23:49;102366.66;;;10.82;100.00
49122;BME280;35529;44.342;25.944;2022-10-18T07:26:26;102372.25;;;10.97;100.00
49122;BME280;35529;44.342;25.944;2022-10-18T07:28:58;102361.25;;;11.10;100.00
49122;BME280;35529;44.342;25.944;2022-10-18T07:31:25;102360.41;;;11.27;100.00
49122;BME280;35529;44.342;25.944;2022-10-18T07:33:56;102357.47;;;11.38;100.00
49122;BME280;35529;44.342;25.944;2022-10-18T07:36:22;102356.41;;;11.49;100.00
49122;BME280;35529;44.342;25.944;2022-10-18T07:38:50;102350.66;;;11.62;100.00
49122;BME280;35529;44.342;25.944;2022-10-18T07:41:16;102350.25;;;11.75;100.00
49122;BME280;35529;44.342;25.944;2022-10-18T07:43:44;102346.81;;;11.91;100.00
49122;BME280;35529;44.342;25.944;2022-10-18T07:46:10;102347.75;;;12.08;100.00
49122;BME280;35529;44.342;25.944;2022-10-18T07:48:37;102343.94;;;12.19;100.00
49122;BME280;35529;44.342;25.944;2022-10-18T07:51:08;102340.66;;;12.25;100.00
49122;BME280;35529;44.342;25.944;2022-10-18T07:53:35;102336.50;;;12.31;100.00
49122;BME280;35529;44.342;25.944;2022-10-18T07:56:02;102339.06;;;12.40;100.00
49122;BME280;35529;44.342;25.944;2022-10-18T07:58:29;102339.88;;;12.49;100.00
49122;BME280;35529;44.342;25.944;2022-10-18T08:00:55;102339.59;;;12.61;100.00
49122;BME280;35529;44.342;25.944;2022-10-18T08:03:21;102343.09;;;12.69;100.00
49122;BME280;35529;44.342;25.944;2022-10-18T08:05:54;102340.78;;;12.74;100.00
49122;BME280;35529;44.342;25.944;2022-10-18T08:08:21;102338.28;;;12.81;100.00
49122;BME280;35529;44.342;25.944;2022-10-18T08:10:48;102332.94;;;12.81;100.00
49122;BME280;35529;44.342;25.944;2022-10-18T08:13:14;102328.47;;;12.90;100.00
49122;BME280;35529;44.342;25.944;2022-10-18T08:15:40;102327.13;;;13.02;100.00
49122;BME280;35529;44.342;25.944;2022-10-18T08:18:07;102323.63;;;13.10;100.00
49122;BME280;35529;44.342;25.944;2022-10-18T08:20:33;102321.78;;;13.19;100.00
49122;BME280;35529;44.342;25.944;2022-10-18T08:23:02;102311.75;;;13.29;100.00
49122;BME280;35529;44.342;25.944;2022-10-18T08:25:29;102315.13;;;13.39;100.00
49122;BME280;35529;44.342;25.944;2022-10-18T08:27:55;102312.09;;;13.51;100.00
49122;BME280;35529;44.342;25.944;2022-10-18T08:33:25;102302.38;;;13.66;100.00
49122;BME280;35529;44.342;25.944;2022-10-18T08:36:03;102303.53;;;13.72;100.00
49122;BME280;35529;44.342;25.944;2022-10-18T08:38:33;102301.00;;;13.79;100.00
49122;BME280;35529;44.342;25.944;2022-10-18T08:43:50;102302.94;;;13.93;100.00
49122;BME280;35529;44.342;25.944;2022-10-18T08:46:27;102294.53;;;14.04;100.00
49122;BME280;35529;44.342;25.944;2022-10-18T08:56:32;102283.94;;;14.42;94.16
49122;BME280;35529;44.342;25.944;2022-10-18T08:58:59;102283.25;;;14.49;91.32
49122;BME280;35529;44.342;25.944;2022-10-18T09:01:47;102279.50;;;14.58;91.08
49122;BME280;35529;44.342;25.944;2022-10-18T09:22:26;102253.94;;;15.02;83.71
49122;BME280;35529;44.342;25.944;2022-10-18T09:25:16;102252.34;;;15.07;84.51
49122;BME280;35529;44.342;25.944;2022-10-18T09:33:32;102242.94;;;15.27;82.00
49122;BME280;35529;44.342;25.944;2022-10-18T09:36:02;102237.31;;;15.36;82.01
49122;BME280;35529;44.342;25.944;2022-10-18T09:38:31;102226.53;;;15.45;78.57
49122;BME280;35529;44.342;25.944;2022-10-18T09:44:13;102226.31;;;15.61;78.49
49122;BME280;35529;44.342;25.944;2022-10-18T09:46:12;102212.00;;;15.69;79.62
49122;BME280;35529;44.342;25.944;2022-10-18T09:51:34;102195.63;;;15.79;79.89
49122;BME280;35529;44.342;25.944;2022-10-18T09:56:48;102203.66;;;15.94;79.10
49122;BME280;35529;44.342;25.944;2022-10-18T10:01:55;102202.31;;;16.04;76.74
49122;BME280;35529;44.342;25.944;2022-10-18T10:04:21;102198.94;;;16.17;75.33
49122;BME280;35529;44.342;25.944;2022-10-18T10:06:51;102196.34;;;16.24;74.42
49122;BME280;35529;44.342;25.944;2022-10-18T10:09:21;102177.44;;;16.32;72.24
49122;BME280;35529;44.342;25.944;2022-10-18T10:11:50;102182.66;;;16.40;69.83
49122;BME280;35529;44.342;25.944;2022-10-18T10:14:28;102178.56;;;16.45;68.70
49122;BME280;35529;44.342;25.944;2022-10-18T10:17:01;102172.44;;;16.51;67.54
49122;BME280;35529;44.342;25.944;2022-10-18T10:19:34;102172.28;;;16.59;66.41
49122;BME280;35529;44.342;25.944;2022-10-18T10:22:03;102157.66;;;16.62;64.43
49122;BME280;35529;44.342;25.944;2022-10-18T10:24:35;102154.78;;;16.63;62.98
49122;BME280;35529;44.342;25.944;2022-10-18T10:27:03;102159.38;;;16.69;61.37
49122;BME280;35529;44.342;25.944;2022-10-18T10:29:50;102147.47;;;16.79;61.76
49122;BME280;35529;44.342;25.944;2022-10-18T10:32:20;102140.03;;;16.81;64.00
49122;BME280;35529;44.342;25.944;2022-10-18T10:34:46;102139.25;;;16.87;64.18
49122;BME280;35529;44.342;25.944;2022-10-18T10:45:24;102119.16;;;17.04;63.21
49122;BME280;35529;44.342;25.944;2022-10-18T10:47:53;102119.16;;;17.04;63.19
49122;BME280;35529;44.342;25.944;2022-10-18T10:50:27;102106.34;;;17.06;62.42
49122;BME280;35529;44.342;25.944;2022-10-18T10:53:03;102090.88;;;17.08;62.24
49122;BME280;35529;44.342;25.944;2022-10-18T10:55:31;102095.84;;;17.12;61.34
49122;BME280;35529;44.342;25.944;2022-10-18T10:57:59;102093.16;;;17.12;61.43
49122;BME280;35529;44.342;25.944;2022-10-18T11:03:21;102080.00;;;17.23;62.82
49122;BME280;35529;44.342;25.944;2022-10-18T11:05:49;102076.50;;;17.30;62.78
49122;BME280;35529;44.342;25.944;2022-10-18T11:14:45;102069.72;;;17.40;61.95
49122;BME280;35529;44.342;25.944;2022-10-18T11:19:31;102064.97;;;17.49;61.92
49122;BME280;35529;44.342;25.944;2022-10-18T11:21:59;102051.56;;;17.56;60.68
49122;BME280;35529;44.342;25.944;2022-10-18T11:24:27;102047.44;;;17.60;59.13
49122;BME280;35529;44.342;25.944;2022-10-18T11:32:24;102024.72;;;17.63;60.80
49122;BME280;35529;44.342;25.944;2022-10-18T11:37:37;102016.47;;;17.71;59.30
49122;BME280;35529;44.342;25.944;2022-10-18T11:40:13;102005.72;;;17.78;59.03
49122;BME280;35529;44.342;25.944;2022-10-18T11:42:56;102000.97;;;17.80;59.03
49122;BME280;35529;44.342;25.944;2022-10-18T11:45:38;101988.53;;;17.79;58.69
49122;BME280;35529;44.342;25.944;2022-10-18T11:53:40;101979.25;;;17.88;57.82
49122;BME280;35529;44.342;25.944;2022-10-18T11:56:14;101969.13;;;17.90;55.78
49122;BME280;35529;44.342;25.944;2022-10-18T12:01:33;101968.13;;;17.98;57.06
49122;BME280;35529;44.342;25.944;2022-10-18T12:04:25;101967.69;;;18.01;56.44
49122;BME280;35529;44.342;25.944;2022-10-18T12:06:52;101963.97;;;18.02;55.86
49122;BME280;35529;44.342;25.944;2022-10-18T12:09:23;101977.81;;;18.05;55.44
49122;BME280;35529;44.342;25.944;2022-10-18T12:11:57;101958.59;;;18.08;54.17
49122;BME280;35529;44.342;25.944;2022-10-18T12:14:28;101956.94;;;18.07;54.62
49122;BME280;35529;44.342;25.944;2022-10-18T12:16:57;101955.25;;;18.13;55.39
49122;BME280;35529;44.342;25.944;2022-10-18T12:19:25;101952.56;;;18.13;55.18
49122;BME280;35529;44.342;25.944;2022-10-18T12:21:53;101941.19;;;18.18;55.22
49122;BME280;35529;44.342;25.944;2022-10-18T12:24:20;101942.81;;;18.19;55.62
49122;BME280;35529;44.342;25.944;2022-10-18T12:26:48;101937.88;;;18.16;56.36
49122;BME280;35529;44.342;25.944;2022-10-18T12:32:09;101932.91;;;18.19;56.13
49122;BME280;35529;44.342;25.944;2022-10-18T12:42:38;101915.06;;;18.38;56.17
49122;BME280;35529;44.342;25.944;2022-10-18T12:47:52;101906.53;;;18.48;52.59
49122;BME280;35529;44.342;25.944;2022-10-18T12:50:33;101906.53;;;18.48;53.60
49122;BME280;35529;44.342;25.944;2022-10-18T12:55:36;101898.88;;;18.45;52.93
49122;BME280;35529;44.342;25.944;2022-10-18T13:01:13;101893.91;;;18.49;53.33
49122;BME280;35529;44.342;25.944;2022-10-18T13:03:41;101900.91;;;18.50;54.26
49122;BME280;35529;44.342;25.944;2022-10-18T13:06:15;101896.97;;;18.52;54.65
49122;BME280;35529;44.342;25.944;2022-10-18T13:08:41;101892.00;;;18.56;51.67
49122;BME280;35529;44.342;25.944;2022-10-18T13:16:30;101881.69;;;18.53;51.12
49122;BME280;35529;44.342;25.944;2022-10-18T13:19:08;101879.00;;;18.53;51.04
49122;BME280;35529;44.342;25.944;2022-10-18T13:21:51;101874.44;;;18.53;50.28
49122;BME280;35529;44.342;25.944;2022-10-18T13:29:54;101860.75;;;18.55;50.58
49122;BME280;35529;44.342;25.944;2022-10-18T13:37:57;101843.16;;;18.59;51.21
49122;BME280;35529;44.342;25.944;2022-10-18T13:40:24;101844.00;;;18.59;51.92
49122;BME280;35529;44.342;25.944;2022-10-18T13:42:51;101838.38;;;18.61;53.43
49122;BME280;35529;44.342;25.944;2022-10-18T13:47:52;101832.56;;;18.64;52.67
49122;BME280;35529;44.342;25.944;2022-10-18T13:50:39;101837.53;;;18.67;53.53
49122;BME280;35529;44.342;25.944;2022-10-18T13:53:38;101833.78;;;18.68;53.32
49122;BME280;35529;44.342;25.944;2022-10-18T13:56:02;101828.03;;;18.65;51.80
49122;BME280;35529;44.342;25.944;2022-10-18T13:58:43;101821.00;;;18.64;52.54
49122;BME280;35529;44.342;25.944;2022-10-18T14:06:19;101809.84;;;18.60;53.48
49122;BME280;35529;44.342;25.944;2022-10-18T14:11:49;101808.44;;;18.51;53.60
49122;BME280;35529;44.342;25.944;2022-10-18T14:19:55;101799.88;;;18.35;53.93
49122;BME280;35529;44.342;25.944;2022-10-18T14:22:37;101794.94;;;18.25;53.96
49122;BME280;35529;44.342;25.944;2022-10-18T14:25:17;101796.66;;;18.13;54.14
49122;BME280;35529;44.342;25.944;2022-10-18T14:27:43;101777.88;;;18.06;54.20
49122;BME280;35529;44.342;25.944;2022-10-18T14:32:48;101780.41;;;17.88;54.84
49122;BME280;35529;44.342;25.944;2022-10-18T14:35:16;101776.13;;;17.73;55.37
49122;BME280;35529;44.342;25.944;2022-10-18T14:37:42;101771.63;;;17.61;55.68
49122;BME280;35529;44.342;25.944;2022-10-18T14:40:24;101772.69;;;17.53;55.71
49122;BME280;35529;44.342;25.944;2022-10-18T14:42:50;101779.53;;;17.42;56.12
49122;BME280;35529;44.342;25.944;2022-10-18T14:45:17;101766.56;;;17.32;56.45
49122;BME280;35529;44.342;25.944;2022-10-18T14:47:44;101769.66;;;17.22;57.29
49122;BME280;35529;44.342;25.944;2022-10-18T14:50:24;101771.31;;;17.10;58.33
49122;BME280;35529;44.342;25.944;2022-10-18T14:52:51;101768.44;;;16.98;59.66
49122;BME280;35529;44.342;25.944;2022-10-18T14:55:21;101765.34;;;16.88;60.96
49122;BME280;35529;44.342;25.944;2022-10-18T14:57:48;101763.25;;;16.76;62.35
49122;BME280;35529;44.342;25.944;2022-10-18T15:00:34;101754.19;;;16.64;63.61
49122;BME280;35529;44.342;25.944;2022-10-18T15:03:04;101763.44;;;16.55;64.94
49122;BME280;35529;44.342;25.944;2022-10-18T15:05:31;101755.19;;;16.43;65.33
49122;BME280;35529;44.342;25.944;2022-10-18T15:07:58;101762.78;;;16.33;66.19
49122;BME280;35529;44.342;25.944;2022-10-18T15:10:29;101756.00;;;16.23;66.81
49122;BME280;35529;44.342;25.944;2022-10-18T15:12:56;101754.09;;;16.11;67.82
49122;BME280;35529;44.342;25.944;2022-10-18T15:15:27;101751.16;;;15.99;69.02
49122;BME280;35529;44.342;25.944;2022-10-18T15:17:54;101752.78;;;15.86;69.79
49122;BME280;35529;44.342;25.944;2022-10-18T15:22:46;101748.09;;;15.60;71.81
49122;BME280;35529;44.342;25.944;2022-10-18T15:25:14;101746.38;;;15.46;73.70
49122;BME280;35529;44.342;25.944;2022-10-18T15:27:45;101747.13;;;15.33;75.21
49122;BME280;35529;44.342;25.944;2022-10-18T15:30:21;101741.25;;;15.16;76.62
49122;BME280;35529;44.342;25.944;2022-10-18T15:32:58;101738.25;;;14.97;77.95
49122;BME280;35529;44.342;25.944;2022-10-18T15:35:26;101731.13;;;14.83;79.60
49122;BME280;35529;44.342;25.944;2022-10-18T15:37:54;101743.78;;;14.67;80.76
49122;BME280;35529;44.342;25.944;2022-10-18T15:42:47;101743.50;;;14.40;83.06
49122;BME280;35529;44.342;25.944;2022-10-18T15:47:59;101725.53;;;14.13;85.79
49122;BME280;35529;44.342;25.944;2022-10-18T15:51:15;101735.25;;;13.99;87.48